Time;durP1;ratioP1;P1;durP2;ratioP2;P2;SDS_P1;SDS_P2;PMS_P1;PMS_P2;Temp;Humidity;BMP_temperature;BMP_pressure;BME280_temperature;BME280_humidity;BME280_pressure;Samples;Min_cycle;Max_cycle;Signal;HPM_P1;HPM_P2
2022/10/16 00:02:00;;;;;;;;;2.00;1.67;;;;;17.04;75.60;100686.66;4990145;27;45576;-67
2022/10/16 00:04:26;;;;;;;;;2.00;2.00;;;;;17.04;76.07;100705.19;4989490;27;45443;-67
2022/10/16 00:06:51;;;;;;;;;1.00;1.00;;;;;17.01;76.09;100703.47;4989682;27;45364;-67
2022/10/16 00:09:17;;;;;;;;;1.67;1.00;;;;;17.09;76.01;100713.88;4992546;27;45380;-67
2022/10/16 00:11:42;;;;;;;;;4.67;3.00;;;;;17.07;76.08;100729.78;4988989;27;45444;-66
2022/10/16 00:14:11;;;;;;;;;2.00;2.00;;;;;17.00;75.91;100706.16;4989627;27;46099;-66
2022/10/16 00:16:37;;;;;;;;;1.00;1.00;;;;;16.85;76.38;100688.91;5092133;27;45441;-67
2022/10/16 00:19:03;;;;;;;;;2.67;1.00;;;;;16.99;76.21;100720.28;4994242;27;45616;-67
2022/10/16 00:21:31;;;;;;;;;2.33;2.00;;;;;16.90;76.75;100718.75;4994024;27;45438;-67
2022/10/16 00:24:04;;;;;;;;;2.00;2.00;;;;;16.87;76.85;100721.44;4982222;28;46536;-65
2022/10/16 00:26:32;;;;;;;;;3.00;2.00;;;;;16.93;76.73;100727.47;5007849;27;45374;-67
2022/10/16 00:28:58;;;;;;;;;3.00;3.00;;;;;16.93;76.96;100722.16;4990203;27;45364;-66
2022/10/16 00:31:24;;;;;;;;;2.33;1.00;;;;;16.93;76.85;100727.47;4989763;27;45338;-67
2022/10/16 00:33:50;;;;;;;;;2.67;2.67;;;;;16.86;77.32;100717.06;4991565;27;46696;-68
2022/10/16 00:36:19;;;;;;;;;2.00;2.00;;;;;16.93;77.72;100731.91;4993300;27;45429;-68
2022/10/16 00:38:45;;;;;;;;;2.33;2.33;;;;;16.83;77.85;100730.38;4990337;27;45473;-67
2022/10/16 00:41:14;;;;;;;;;2.00;2.00;;;;;16.91;77.57;100745.16;4992683;27;45653;-66
2022/10/16 00:43:49;;;;;;;;;1.00;1.00;;;;;16.88;77.73;100739.94;4996345;27;46750;-65
2022/10/16 00:46:35;;;;;;;;;3.33;2.00;;;;;16.88;77.82;100741.72;4996754;27;45382;-67
2022/10/16 00:49:04;;;;;;;;;2.33;2.00;;;;;16.93;77.83;100756.56;4993517;27;45499;-66
2022/10/16 00:51:34;;;;;;;;;1.33;1.33;;;;;16.95;77.84;100757.41;4989667;27;46128;-67
2022/10/16 00:54:08;;;;;;;;;3.00;3.00;;;;;16.93;77.52;100739.81;4990538;27;47275;-67
2022/10/16 00:56:34;;;;;;;;;1.33;1.33;;;;;17.04;77.41;100744.88;4990394;27;45581;-66
2022/10/16 00:59:04;;;;;;;;;4.00;2.33;;;;;17.09;77.34;100741.19;5009573;27;45494;-66
2022/10/16 01:01:30;;;;;;;;;3.00;3.00;;;;;16.99;77.33;100738.81;4993371;27;45723;-68
2022/10/16 01:03:55;;;;;;;;;5.00;3.00;;;;;16.97;77.28;100732.69;4991921;27;45767;-65
2022/10/16 01:07:14;;;;;;;;;2.00;2.00;;;;;16.99;77.73;100738.81;4996378;27;45498;-67
2022/10/16 01:10:04;;;;;;;;;3.33;3.33;;;;;16.90;77.64;100738.13;4996647;27;45472;-66
2022/10/16 01:12:55;;;;;;;;;2.00;2.00;;;;;16.73;77.82;100721.78;4992513;27;45660;-67
2022/10/16 01:15:30;;;;;;;;;3.00;3.00;;;;;16.79;78.08;100749.88;4990658;27;46824;-67
2022/10/16 01:18:16;;;;;;;;;2.00;2.00;;;;;16.63;78.25;100736.09;5006810;27;45478;-67
2022/10/16 01:20:43;;;;;;;;;3.00;3.00;;;;;16.77;77.97;100760.44;5007016;27;45503;-68
2022/10/16 01:23:25;;;;;;;;;2.33;2.00;;;;;16.71;77.95;100755.31;4990119;27;46004;-68
2022/10/16 01:26:21;;;;;;;;;1.33;1.33;;;;;16.72;77.99;100759.69;4992148;27;45586;-66
2022/10/16 01:29:06;;;;;;;;;2.00;2.00;;;;;16.83;77.23;100768.28;5007450;27;45355;-67
2022/10/16 01:31:36;;;;;;;;;2.00;2.00;;;;;16.79;77.33;100755.16;4992067;27;45389;-68
2022/10/16 01:34:11;;;;;;;;;1.00;1.00;;;;;16.75;77.29;100760.50;4993903;27;45550;-68
2022/10/16 01:36:52;;;;;;;;;4.00;1.67;;;;;16.71;77.26;100766.75;4980904;27;45512;-67
2022/10/16 01:39:24;;;;;;;;;1.00;1.00;;;;;16.76;77.34;100771.94;4989345;27;45627;-67
2022/10/16 01:41:58;;;;;;;;;1.67;1.00;;;;;16.80;76.88;100770.13;4992576;27;45503;-68
2022/10/16 01:44:32;;;;;;;;;2.33;1.00;;;;;16.78;77.18;100767.50;4994316;28;45418;-66
2022/10/16 01:46:59;;;;;;;;;1.00;1.00;;;;;16.77;76.92;100763.09;4991761;27;46240;-69
2022/10/16 01:49:30;;;;;;;;;1.00;1.00;;;;;16.69;76.38;100739.47;4991860;27;45296;-67
2022/10/16 01:51:59;;;;;;;;;1.00;1.00;;;;;16.76;76.51;100750.78;4991773;27;45503;-68
2022/10/16 01:54:28;;;;;;;;;3.00;1.00;;;;;16.78;76.71;100763.97;4991540;27;45386;-67
2022/10/16 01:56:56;;;;;;;;;1.00;1.00;;;;;16.74;76.28;100757.88;4993588;27;45571;-66
2022/10/16 01:59:25;;;;;;;;;2.00;2.00;;;;;16.80;76.46;100752.50;4996058;27;45491;-65
2022/10/16 02:01:56;;;;;;;;;1.00;1.00;;;;;16.80;76.06;100757.78;4995605;27;45465;-66
2022/10/16 02:04:32;;;;;;;;;1.00;1.00;;;;;16.83;76.08;100754.19;4990691;27;45342;-66
2022/10/16 02:06:59;;;;;;;;;1.00;1.00;;;;;16.79;76.13;100753.38;4989865;27;46437;-67
2022/10/16 02:09:25;;;;;;;;;1.00;1.00;;;;;16.78;75.97;100751.63;4990163;27;45438;-67
2022/10/16 02:11:54;;;;;;;;;1.00;1.00;;;;;16.79;76.12;100752.50;4995915;27;45254;-67
2022/10/16 02:14:24;;;;;;;;;1.00;1.00;;;;;16.76;76.20;100756.06;4996097;27;45448;-67
2022/10/16 02:16:49;;;;;;;;;1.00;1.00;;;;;16.74;75.65;100749.94;4990087;27;47823;-68
2022/10/16 02:19:19;;;;;;;;;0.00;0.00;;;;;16.78;75.84;100764.84;4992150;27;45334;-67
2022/10/16 02:21:56;;;;;;;;;0.67;0.67;;;;;16.82;75.80;100778.88;4993166;27;45410;-67
2022/10/16 02:24:37;;;;;;;;;1.00;1.00;;;;;16.78;75.15;100769.28;4991813;27;45687;-66
2022/10/16 02:27:11;;;;;;;;;1.67;1.00;;;;;16.79;75.28;100771.91;4989745;27;47860;-65
2022/10/16 02:29:48;;;;;;;;;1.67;1.00;;;;;16.71;75.32;100744.72;4995296;27;45479;-66
2022/10/16 02:32:17;;;;;;;;;1.00;0.67;;;;;16.66;74.94;100749.25;4995422;27;45609;-66
2022/10/16 02:34:44;;;;;;;;;1.00;1.00;;;;;16.76;75.06;100777.22;4992003;27;45502;-67
2022/10/16 02:37:10;;;;;;;;;0.00;0.00;;;;;16.73;75.02;100782.59;4989798;27;46935;-67
2022/10/16 02:39:38;;;;;;;;;0.00;0.00;;;;;16.81;74.78;100777.16;4989817;27;45469;-66
2022/10/16 02:42:03;;;;;;;;;2.67;1.00;;;;;16.79;74.77;100781.59;4994728;27;45426;-67
2022/10/16 02:44:29;;;;;;;;;1.00;1.00;;;;;16.75;74.53;100780.75;4989939;27;45632;-66
2022/10/16 02:46:56;;;;;;;;;3.00;1.00;;;;;16.79;74.12;100777.19;4989154;27;46815;-67
2022/10/16 02:49:22;;;;;;;;;1.00;1.00;;;;;16.79;74.29;100773.69;4990705;27;45580;-66
2022/10/16 02:51:50;;;;;;;;;1.00;1.00;;;;;16.77;73.82;100784.25;4990650;27;45422;-67
2022/10/16 02:54:16;;;;;;;;;1.00;1.00;;;;;16.71;74.43;100781.75;4988929;27;45582;-66
2022/10/16 02:56:41;;;;;;;;;1.00;1.00;;;;;16.73;74.09;100778.16;4990318;27;46024;-66
2022/10/16 02:59:07;;;;;;;;;0.33;0.33;;;;;16.81;73.71;100796.53;4993539;27;45467;-66
2022/10/16 03:01:33;;;;;;;;;2.00;0.00;;;;;16.74;73.49;100779.03;4992251;27;45491;-65
2022/10/16 03:03:58;;;;;;;;;1.00;0.00;;;;;16.86;73.32;100799.94;4988745;27;45877;-66
2022/10/16 03:06:24;;;;;;;;;1.00;1.00;;;;;16.91;73.12;100799.84;4990247;27;47347;-66
2022/10/16 03:08:49;;;;;;;;;1.00;1.00;;;;;16.87;72.85;100800.81;4990405;27;45311;-66
2022/10/16 03:11:15;;;;;;;;;0.00;0.00;;;;;16.69;72.53;100786.22;4988885;27;45340;-66
2022/10/16 03:13:41;;;;;;;;;2.33;1.00;;;;;16.68;72.53;100790.63;4990848;27;45497;-65
2022/10/16 03:16:06;;;;;;;;;1.00;0.00;;;;;16.73;72.47;100803.75;4991568;27;46466;-66
2022/10/16 03:18:32;;;;;;;;;0.00;0.00;;;;;16.79;72.79;100800.13;4991651;27;45384;-66
2022/10/16 03:20:57;;;;;;;;;0.67;0.00;;;;;16.75;72.19;100791.34;4990396;27;45864;-66
2022/10/16 03:23:23;;;;;;;;;1.00;1.00;;;;;16.70;72.44;100795.88;4992366;27;45564;-66
2022/10/16 03:25:48;;;;;;;;;1.00;0.00;;;;;16.69;72.43;100805.59;4992409;27;45550;-67
2022/10/16 03:28:14;;;;;;;;;0.67;0.67;;;;;16.60;72.63;100789.91;4988359;27;45350;-66
2022/10/16 03:30:39;;;;;;;;;0.00;0.00;;;;;16.60;72.69;100797.00;4989928;27;45347;-67
2022/10/16 03:33:05;;;;;;;;;0.00;0.00;;;;;16.53;72.90;100790.97;4991137;27;45883;-67
2022/10/16 03:35:32;;;;;;;;;0.33;0.00;;;;;16.60;72.80;100786.41;4976577;28;45433;-66
2022/10/16 03:37:58;;;;;;;;;1.67;1.00;;;;;16.51;73.47;100769.84;4993719;27;45556;-67
2022/10/16 03:40:24;;;;;;;;;1.67;1.00;;;;;16.45;73.56;100759.41;4989202;27;45646;-67
2022/10/16 03:42:49;;;;;;;;;2.00;1.00;;;;;16.38;73.99;100775.44;5012961;27;45511;-66
2022/10/16 03:45:15;;;;;;;;;0.67;0.67;;;;;16.11;73.98;100735.44;5001703;27;45414;-67
2022/10/16 03:47:40;;;;;;;;;0.00;0.00;;;;;16.31;74.03;100775.56;4990664;27;45435;-66
2022/10/16 03:50:07;;;;;;;;;0.00;0.00;;;;;16.34;73.95;100771.97;4990553;28;45405;-66
2022/10/16 03:52:32;;;;;;;;;0.67;0.67;;;;;16.20;73.48;100744.97;4990738;27;45492;-67
2022/10/16 03:54:58;;;;;;;;;0.00;0.00;;;;;16.35;73.88;100786.94;4988954;27;47677;-67
2022/10/16 03:57:24;;;;;;;;;2.00;0.00;;;;;16.21;73.57;100754.66;4990121;27;45489;-67
2022/10/16 03:59:50;;;;;;;;;2.00;0.00;;;;;16.41;73.63;100789.44;4983039;27;45809;-68
2022/10/16 04:02:16;;;;;;;;;0.00;0.00;;;;;16.39;73.75;100785.09;4980633;27;45255;-67
2022/10/16 04:04:42;;;;;;;;;0.00;0.00;;;;;16.47;73.26;100781.41;4978110;27;45394;-67
2022/10/16 04:07:10;;;;;;;;;0.00;0.00;;;;;16.51;72.67;100779.53;4980933;27;45396;-66
2022/10/16 04:09:35;;;;;;;;;0.00;0.00;;;;;16.54;72.93;100785.66;4981653;27;45297;-68
2022/10/16 04:12:01;;;;;;;;;0.00;0.00;;;;;16.37;73.36;100761.31;4981349;27;45414;-68
2022/10/16 04:14:27;;;;;;;;;2.00;0.00;;;;;16.52;73.10;100783.94;4983238;27;46152;-66
2022/10/16 04:16:52;;;;;;;;;0.00;0.00;;;;;16.50;72.72;100776.03;4977624;27;45576;-67
2022/10/16 04:19:18;;;;;;;;;0.00;0.00;;;;;16.63;72.72;100792.47;4976488;28;45396;-67
2022/10/16 04:21:44;;;;;;;;;1.00;0.00;;;;;16.64;72.46;100788.97;4977816;28;45518;-68
2022/10/16 04:24:11;;;;;;;;;0.00;0.00;;;;;16.61;72.33;100775.81;4989332;27;46732;-68
2022/10/16 04:26:37;;;;;;;;;0.00;0.00;;;;;16.68;72.18;100782.69;4975725;27;45681;-68
2022/10/16 04:29:03;;;;;;;;;0.00;0.00;;;;;16.71;72.60;100795.84;4973867;27;45359;-69
2022/10/16 04:31:28;;;;;;;;;0.33;0.00;;;;;16.70;72.43;100795.88;4977904;27;45538;-67
2022/10/16 04:33:55;;;;;;;;;0.00;0.00;;;;;16.80;72.41;100823.00;4987584;27;46742;-66
2022/10/16 04:36:20;;;;;;;;;0.00;0.00;;;;;16.79;72.18;100811.56;4995272;27;45427;-67
2022/10/16 04:38:46;;;;;;;;;0.00;0.00;;;;;16.80;72.32;100817.72;4987909;27;45476;-67
2022/10/16 04:41:12;;;;;;;;;0.00;0.00;;;;;16.81;72.20;100832.72;4989601;27;45418;-67
2022/10/16 04:43:37;;;;;;;;;0.00;0.00;;;;;16.81;72.39;100838.88;4987456;27;45988;-66
2022/10/16 04:46:04;;;;;;;;;1.00;1.00;;;;;16.83;72.29;100833.53;4993756;27;45384;-68
2022/10/16 04:48:30;;;;;;;;;0.00;0.00;;;;;16.83;72.55;100837.06;4997112;27;45396;-66
2022/10/16 04:50:56;;;;;;;;;1.33;0.00;;;;;16.85;72.36;100835.25;4976749;27;45263;-68
2022/10/16 04:53:22;;;;;;;;;0.00;0.00;;;;;16.81;72.25;100825.63;4989085;27;46158;-67
2022/10/16 04:55:47;;;;;;;;;0.00;0.00;;;;;16.81;72.35;100845.94;4988343;27;45451;-67
2022/10/16 04:58:13;;;;;;;;;0.00;0.00;;;;;16.79;72.50;100843.31;4985976;27;45785;-66
2022/10/16 05:00:38;;;;;;;;;0.00;0.00;;;;;16.84;72.50;100849.38;4989001;27;45854;-67
2022/10/16 05:03:08;;;;;;;;;0.00;0.00;;;;;16.80;72.38;100850.34;4988995;27;46549;-67
2022/10/16 05:05:35;;;;;;;;;2.00;0.00;;;;;16.87;72.20;100869.59;4991383;27;45584;-68
2022/10/16 05:08:01;;;;;;;;;0.00;0.00;;;;;16.87;72.41;100872.22;4986776;27;45453;-68
2022/10/16 05:10:26;;;;;;;;;0.00;0.00;;;;;16.81;72.41;100881.19;5002547;27;45385;-66
2022/10/16 05:12:52;;;;;;;;;0.00;0.00;;;;;16.69;72.74;100852.31;4982174;27;45431;-66
2022/10/16 05:15:18;;;;;;;;;0.00;0.00;;;;;16.78;72.52;100875.06;4986200;27;45511;-69
2022/10/16 05:17:44;;;;;;;;;0.00;0.00;;;;;16.69;72.78;100862.91;4987172;27;45913;-68
2022/10/16 05:20:10;;;;;;;;;0.67;0.00;;;;;16.68;73.26;100869.97;4984903;27;45460;-67
2022/10/16 05:22:36;;;;;;;;;0.00;0.00;;;;;16.62;72.91;100885.94;4987438;27;45471;-68
2022/10/16 05:25:02;;;;;;;;;0.67;0.00;;;;;16.62;73.10;100885.94;4981285;27;45446;-68
2022/10/16 05:27:27;;;;;;;;;0.67;0.67;;;;;16.67;72.97;100899.09;4986348;27;45497;-66
2022/10/16 05:29:53;;;;;;;;;0.00;0.00;;;;;16.58;72.66;100884.25;4984329;27;45868;-66
2022/10/16 05:32:19;;;;;;;;;0.00;0.00;;;;;16.64;72.90;100896.50;4984662;27;46779;-68
2022/10/16 05:34:45;;;;;;;;;0.00;0.00;;;;;16.54;72.37;100890.53;4989632;27;45475;-66
2022/10/16 05:37:11;;;;;;;;;0.00;0.00;;;;;16.62;73.16;100904.47;4985907;27;45430;-67
2022/10/16 05:39:37;;;;;;;;;0.00;0.00;;;;;16.62;73.07;100903.59;4987691;27;45479;-68
2022/10/16 05:42:04;;;;;;;;;0.00;0.00;;;;;16.56;73.45;100901.06;4989244;27;47549;-67
2022/10/16 05:44:29;;;;;;;;;0.00;0.00;;;;;16.38;74.10;100887.31;5001042;27;45913;-68
2022/10/16 05:46:55;;;;;;;;;1.00;1.00;;;;;16.28;74.17;100873.41;4986481;27;45401;-69
2022/10/16 05:49:20;;;;;;;;;0.00;0.00;;;;;16.24;75.30;100890.22;4993466;27;45495;-67
2022/10/16 05:51:46;;;;;;;;;1.67;1.00;;;;;16.23;75.64;100903.47;4984215;27;45545;-66
2022/10/16 05:54:11;;;;;;;;;0.00;0.00;;;;;16.19;75.68;100899.16;4974246;27;45445;-67
2022/10/16 05:56:37;;;;;;;;;1.00;1.00;;;;;16.08;75.89;100883.47;4980869;27;45378;-67
2022/10/16 05:59:03;;;;;;;;;1.00;1.00;;;;;16.12;76.14;100885.19;4988928;27;45519;-67
2022/10/16 06:01:30;;;;;;;;;1.33;1.33;;;;;16.11;75.97;100900.16;4983428;27;46218;-67
2022/10/16 06:03:56;;;;;;;;;3.00;1.00;;;;;16.02;76.74;100894.19;4974676;28;45300;-67
2022/10/16 06:06:27;;;;;;;;;2.33;2.00;;;;;16.02;76.88;100899.47;4975629;28;45532;-68
2022/10/16 06:08:54;;;;;;;;;2.00;2.00;;;;;16.01;76.91;100895.94;4978191;27;45362;-67
2022/10/16 06:11:25;;;;;;;;;0.00;0.00;;;;;16.03;77.32;100909.97;4980760;27;45979;-66
2022/10/16 06:13:53;;;;;;;;;6.67;3.00;;;;;16.00;77.73;100901.25;4985578;27;45415;-67
2022/10/16 06:16:19;;;;;;;;;2.67;2.67;;;;;15.93;77.89;100902.25;4982834;27;45413;-67
2022/10/16 06:18:45;;;;;;;;;3.00;3.00;;;;;15.92;78.16;100901.38;4983373;27;45668;-67
2022/10/16 06:21:17;;;;;;;;;4.00;2.00;;;;;15.89;77.94;100897.00;4983938;28;47005;-68
2022/10/16 06:23:42;;;;;;;;;2.33;2.33;;;;;15.97;78.07;100909.22;4982217;27;45511;-68
2022/10/16 06:26:11;;;;;;;;;3.00;3.00;;;;;15.95;77.74;100898.69;4985743;27;45481;-67
2022/10/16 06:28:37;;;;;;;;;3.33;2.00;;;;;16.02;77.62;100905.63;4986716;27;45415;-67
2022/10/16 06:31:04;;;;;;;;;2.67;2.67;;;;;16.09;77.33;100901.97;4992567;27;45459;-67
2022/10/16 06:33:30;;;;;;;;;2.67;2.00;;;;;16.13;76.54;100894.84;4986440;27;45397;-69
2022/10/16 06:36:12;;;;;;;;;1.00;1.00;;;;;16.23;76.72;100898.16;4986498;28;45553;-66
2022/10/16 06:38:39;;;;;;;;;6.00;2.00;;;;;16.18;77.32;100895.63;4981791;28;45516;-67
2022/10/16 06:41:05;;;;;;;;;2.33;2.00;;;;;16.25;76.78;100897.28;4979758;27;48344;-67
2022/10/16 06:43:32;;;;;;;;;3.33;2.33;;;;;16.21;76.83;100900.88;4983873;27;45638;-69
2022/10/16 06:45:59;;;;;;;;;1.00;1.00;;;;;16.21;76.84;100906.16;4985843;27;45255;-68
2022/10/16 06:48:26;;;;;;;;;1.67;1.67;;;;;16.27;76.84;100913.06;4995780;27;45460;-67
2022/10/16 06:51:13;;;;;;;;;2.00;2.00;;;;;16.29;76.20;100917.44;4987320;27;45456;-67
2022/10/16 06:53:42;;;;;;;;;1.00;1.00;;;;;16.31;76.46;100922.69;4989081;27;45581;-69
2022/10/16 06:56:14;;;;;;;;;2.00;2.00;;;;;16.32;76.61;100941.19;4987945;27;45601;-70
2022/10/16 06:58:41;;;;;;;;;2.67;2.67;;;;;16.33;76.50;100942.06;4993787;27;45358;-68
2022/10/16 07:01:08;;;;;;;;;2.00;2.00;;;;;16.40;76.31;100940.19;4993247;27;47229;-68
2022/10/16 07:03:38;;;;;;;;;5.00;3.00;;;;;16.34;76.22;100927.91;4980528;27;46778;-69
2022/10/16 07:06:05;;;;;;;;;4.67;2.33;;;;;16.46;76.23;100943.53;4991365;27;45378;-69
2022/10/16 07:08:35;;;;;;;;;3.00;3.00;;;;;16.40;76.51;100945.47;4977428;27;45364;-69
2022/10/16 07:11:03;;;;;;;;;4.00;3.00;;;;;16.38;76.76;100958.69;4990612;27;45990;-69
2022/10/16 07:13:29;;;;;;;;;2.67;2.00;;;;;16.34;77.14;100954.34;4992757;27;45554;-66
2022/10/16 07:15:55;;;;;;;;;2.67;2.67;;;;;16.32;77.02;100949.13;4994464;27;45331;-67
2022/10/16 07:18:25;;;;;;;;;3.33;3.33;;;;;16.36;77.06;100957.84;4986260;27;45439;-68
2022/10/16 07:20:51;;;;;;;;;3.00;2.00;;;;;16.51;76.71;100962.88;5081047;27;46578;-66
2022/10/16 07:23:17;;;;;;;;;4.00;3.00;;;;;16.53;76.86;100954.88;4972582;27;46318;-67
2022/10/16 07:25:42;;;;;;;;;3.67;2.67;;;;;16.45;76.52;100947.09;4977469;28;45314;-68
2022/10/16 07:28:08;;;;;;;;;6.67;5.67;;;;;16.56;76.41;100968.03;4980506;27;45402;-66
2022/10/16 07:30:37;;;;;;;;;5.00;4.00;;;;;16.61;76.88;100976.78;4980113;27;46283;-69
2022/10/16 07:33:03;;;;;;;;;4.67;4.00;;;;;16.57;76.53;100974.22;4984352;27;45404;-68
2022/10/16 07:35:28;;;;;;;;;6.00;4.00;;;;;16.45;77.21;100967.38;4976499;27;45407;-68
2022/10/16 07:37:54;;;;;;;;;6.67;6.67;;;;;16.50;77.26;100991.97;4982000;27;45356;-67
2022/10/16 07:40:20;;;;;;;;;7.00;5.00;;;;;16.42;77.71;100983.28;4978269;27;45448;-68
2022/10/16 07:42:46;;;;;;;;;5.00;4.00;;;;;16.55;77.95;100992.75;4981595;27;45555;-67
2022/10/16 07:45:11;;;;;;;;;5.33;5.33;;;;;16.60;77.50;100987.38;4980042;27;45790;-68
2022/10/16 07:47:37;;;;;;;;;5.33;5.33;;;;;16.91;76.71;101009.72;4988204;27;45363;-68
2022/10/16 07:50:03;;;;;;;;;6.00;5.00;;;;;17.05;76.14;101001.50;4993139;27;45358;-68
2022/10/16 07:52:28;;;;;;;;;4.00;4.00;;;;;17.33;75.91;101008.88;4992688;27;45782;-69
2022/10/16 07:54:54;;;;;;;;;5.33;4.67;;;;;17.62;73.85;101015.28;4994276;27;45523;-66
2022/10/16 07:57:19;;;;;;;;;8.33;6.00;;;;;17.77;72.86;101001.69;4996295;27;45516;-68
2022/10/16 07:59:46;;;;;;;;;9.67;5.33;;;;;17.95;72.22;100995.97;4996268;27;45469;-67
2022/10/16 08:02:13;;;;;;;;;5.00;4.67;;;;;18.11;71.46;101000.91;4998041;27;45379;-66
2022/10/16 08:04:39;;;;;;;;;8.00;7.00;;;;;18.16;71.19;101005.19;4996171;27;45548;-66
2022/10/16 08:07:07;;;;;;;;;6.33;5.00;;;;;18.26;70.75;101013.78;4997342;27;45425;-68
2022/10/16 08:09:33;;;;;;;;;5.00;5.00;;;;;18.26;70.96;101026.16;4995421;27;46074;-67
2022/10/16 08:11:58;;;;;;;;;3.33;3.33;;;;;18.35;69.89;101023.28;4992798;27;45691;-68
2022/10/16 08:14:23;;;;;;;;;5.00;5.00;;;;;18.46;69.53;101030.94;4995433;27;45656;-67
2022/10/16 08:16:49;;;;;;;;;5.00;5.00;;;;;18.37;69.30;101040.03;4993327;27;45495;-66
2022/10/16 08:19:15;;;;;;;;;7.00;5.00;;;;;18.19;69.25;101031.59;4992800;27;46750;-68
2022/10/16 08:21:41;;;;;;;;;7.00;6.67;;;;;18.16;69.62;101030.81;4996307;27;45451;-67
2022/10/16 08:24:06;;;;;;;;;3.33;3.33;;;;;18.09;69.79;101029.25;4993686;27;45448;-67
2022/10/16 08:26:32;;;;;;;;;4.00;4.00;;;;;18.05;69.33;101022.25;4991758;27;45748;-67
2022/10/16 08:28:57;;;;;;;;;4.00;4.00;;;;;18.02;69.73;101010.81;4991445;27;47681;-68
2022/10/16 08:31:23;;;;;;;;;6.00;4.33;;;;;18.24;69.14;101012.94;4993088;27;45574;-66
2022/10/16 08:33:49;;;;;;;;;4.67;4.67;;;;;18.38;68.59;101020.53;4993123;27;45475;-66
2022/10/16 08:36:15;;;;;;;;;3.00;3.00;;;;;18.58;68.00;101020.91;4997312;27;45554;-68
2022/10/16 08:38:41;;;;;;;;;5.00;4.00;;;;;18.67;67.96;101024.22;4997023;27;46425;-66
2022/10/16 08:41:12;;;;;;;;;3.67;3.00;;;;;18.69;67.83;101027.69;4995556;27;45355;-67
2022/10/16 08:44:15;;;;;;;;;3.67;3.67;;;;;18.68;67.24;101025.97;4995359;27;45500;-67
2022/10/16 08:47:14;;;;;;;;;5.00;3.67;;;;;18.60;67.90;101029.69;4993331;27;45522;-68
2022/10/16 08:49:42;;;;;;;;;6.33;5.33;;;;;18.53;68.32;101030.78;5007052;27;45344;-68
2022/10/16 08:52:13;;;;;;;;;5.33;4.00;;;;;18.50;68.95;101036.13;4997263;27;45186;-67
2022/10/16 08:54:44;;;;;;;;;7.67;4.33;;;;;18.51;68.90;101037.00;4993009;27;45393;-66
2022/10/16 08:57:21;;;;;;;;;4.33;4.33;;;;;18.52;69.04;101039.63;4992876;27;45393;-69
2022/10/16 08:59:47;;;;;;;;;6.00;6.00;;;;;18.51;68.82;101037.88;4990844;27;46248;-67
2022/10/16 09:02:25;;;;;;;;;7.00;5.00;;;;;18.45;69.30;101040.69;4988048;27;45436;-67
2022/10/16 09:05:09;;;;;;;;;7.33;5.00;;;;;18.38;68.96;101039.09;4980725;27;45319;-67
2022/10/16 09:08:03;;;;;;;;;5.33;5.33;;;;;18.43;69.01;101042.50;4992728;27;45385;-67
2022/10/16 09:11:00;;;;;;;;;5.00;5.00;;;;;18.63;68.32;101039.34;4992305;27;46595;-67
2022/10/16 09:14:13;;;;;;;;;7.33;6.67;;;;;18.89;66.75;101051.94;4979942;27;45362;-68
2022/10/16 09:16:46;;;;;;;;;7.33;4.33;;;;;19.11;65.92;101065.47;5052778;28;45578;-66
2022/10/16 09:19:35;;;;;;;;;5.33;5.33;;;;;19.73;65.26;101050.44;4994318;27;45414;-66
2022/10/16 09:22:14;;;;;;;;;7.00;6.00;;;;;20.16;62.59;101036.63;4984470;27;46066;-67
2022/10/16 09:24:39;;;;;;;;;7.00;5.67;;;;;20.00;62.44;101024.75;4994770;27;45925;-66
2022/10/16 09:27:17;;;;;;;;;6.67;6.67;;;;;20.24;61.77;101026.63;5033089;27;45445;-68
2022/10/16 09:29:42;;;;;;;;;7.00;7.00;;;;;20.26;61.88;101027.44;5016748;27;45607;-68
2022/10/16 09:32:15;;;;;;;;;7.33;5.67;;;;;20.51;60.79;101038.09;5002451;27;45684;-67
2022/10/16 09:34:49;;;;;;;;;9.00;7.00;;;;;20.71;60.61;101033.88;5007658;27;45397;-66
2022/10/16 09:37:20;;;;;;;;;8.33;6.00;;;;;20.94;59.90;101031.28;4994891;27;45888;-68
2022/10/16 09:39:54;;;;;;;;;5.00;4.67;;;;;21.15;59.51;101029.63;4988812;27;45419;-67
2022/10/16 09:42:40;;;;;;;;;7.33;5.00;;;;;21.14;58.24;101041.22;4982080;27;46138;-68
2022/10/16 09:45:22;;;;;;;;;4.00;4.00;;;;;21.68;58.08;101055.16;4982836;27;45631;-66
2022/10/16 09:47:48;;;;;;;;;5.33;5.00;;;;;22.07;56.11;101042.97;4977152;27;45797;-67
2022/10/16 09:50:26;;;;;;;;;4.00;4.00;;;;;21.93;56.03;101046.22;4992050;27;45686;-68
2022/10/16 09:53:08;;;;;;;;;5.00;4.00;;;;;21.72;55.59;101046.13;4987389;27;45958;-66
2022/10/16 09:55:34;;;;;;;;;4.00;3.33;;;;;21.43;55.59;101044.59;4984369;27;45394;-67
2022/10/16 09:57:59;;;;;;;;;3.00;3.00;;;;;21.40;56.26;101042.03;4978569;28;45477;-66
2022/10/16 10:00:25;;;;;;;;;3.00;3.00;;;;;21.40;56.44;101042.03;4979878;27;45777;-67
2022/10/16 10:02:52;;;;;;;;;3.33;3.33;;;;;21.21;55.58;100995.69;4977023;27;46469;-67
2022/10/16 10:05:25;;;;;;;;;5.67;4.00;;;;;21.34;56.33;101018.28;4980367;27;45464;-68
2022/10/16 10:08:07;;;;;;;;;3.00;3.00;;;;;21.74;54.99;101016.75;4977635;27;45509;-68
2022/10/16 10:10:39;;;;;;;;;4.33;3.67;;;;;22.22;53.17;101021.91;4979509;27;45516;-68
2022/10/16 10:13:19;;;;;;;;;3.00;2.00;;;;;22.65;51.91;101012.03;4977812;27;46427;-67
2022/10/16 10:15:45;;;;;;;;;2.00;2.00;;;;;22.63;52.68;101013.91;4987223;27;45455;-67
2022/10/16 10:18:19;;;;;;;;;2.50;2.50;;;;;23.86;50.81;101000.25;4980975;27;45598;-67
2022/10/16 10:20:45;;;;;;;;;2.00;2.00;;;;;27.08;44.27;101004.72;4985661;27;45770;-67
2022/10/16 10:23:22;;;;;;;;;4.00;2.75;;;;;29.04;39.66;100990.72;4987655;27;47463;-68
2022/10/16 10:26:06;;;;;;;;;1.80;1.80;;;;;30.50;37.22;100979.06;4990056;27;45233;-67
2022/10/16 10:28:58;;;;;;;;;2.60;1.00;;;;;28.64;38.33;100998.94;4995697;27;45540;-68
2022/10/16 10:31:45;;;;;;;;;2.00;2.00;;;;;25.72;44.24;101000.28;4994158;27;45465;-67
2022/10/16 10:34:35;;;;;;;;;0.75;0.75;;;;;24.16;48.05;100999.66;4990483;27;45457;-67
2022/10/16 10:37:37;;;;;;;;;1.00;1.00;;;;;23.18;50.57;100999.94;4991640;27;45520;-68
2022/10/16 10:40:06;;;;;;;;;2.00;2.00;;;;;22.19;53.26;101014.00;5010832;27;45339;-68
2022/10/16 10:42:43;;;;;;;;;3.00;1.50;;;;;21.76;54.79;101005.09;4991061;27;45483;-68
2022/10/16 10:45:38;;;;;;;;;2.25;2.25;;;;;21.12;56.03;101007.56;4983411;27;45606;-68
2022/10/16 10:48:35;;;;;;;;;1.50;1.00;;;;;20.80;57.51;101014.06;4984434;27;45322;-69
2022/10/16 10:51:32;;;;;;;;;2.00;1.00;;;;;20.36;59.06;101008.47;4993962;27;45520;-67
2022/10/16 10:54:30;;;;;;;;;1.00;1.00;;;;;20.16;60.47;101023.31;4994546;27;45287;-67
2022/10/16 10:57:11;;;;;;;;;1.00;1.00;;;;;19.91;61.47;101017.97;4990951;27;45446;-66
2022/10/16 10:59:58;;;;;;;;;1.00;1.00;;;;;19.79;62.12;101015.66;4990974;27;45444;-67
2022/10/16 11:02:40;;;;;;;;;1.00;1.00;;;;;19.62;62.69;101008.19;4991046;27;45399;-68
2022/10/16 11:05:09;;;;;;;;;3.00;2.33;;;;;19.45;63.47;101008.72;4989989;27;45497;-68
2022/10/16 11:07:39;;;;;;;;;2.00;2.00;;;;;19.29;63.87;100995.03;4991583;27;47599;-69
2022/10/16 11:10:14;;;;;;;;;2.00;1.00;;;;;19.19;64.88;100996.22;4994898;27;45316;-67
2022/10/16 11:12:44;;;;;;;;;2.67;2.67;;;;;19.02;65.35;100976.34;4989401;27;45405;-67
2022/10/16 11:15:16;;;;;;;;;1.33;1.33;;;;;19.14;65.85;101000.81;4990772;28;45496;-66
2022/10/16 11:17:48;;;;;;;;;1.33;1.33;;;;;19.26;65.42;100995.13;4986642;27;46323;-67
2022/10/16 11:20:19;;;;;;;;;1.33;1.33;;;;;19.49;64.72;101003.28;4981182;27;45575;-67
2022/10/16 11:23:17;;;;;;;;;1.00;1.00;;;;;19.77;63.75;100988.28;4981790;27;45485;-67
2022/10/16 11:25:45;;;;;;;;;1.00;0.00;;;;;20.22;62.73;100995.69;5012912;27;45424;-67
2022/10/16 11:28:14;;;;;;;;;1.00;1.00;;;;;20.62;61.89;100981.88;4981907;27;46106;-66
2022/10/16 11:31:22;;;;;;;;;1.00;1.00;;;;;20.72;60.93;100988.59;4983844;27;45406;-67
2022/10/16 11:33:57;;;;;;;;;1.00;1.00;;;;;20.47;61.59;100969.06;5066345;28;45581;-67
2022/10/16 11:36:33;;;;;;;;;2.00;1.00;;;;;20.51;61.77;100987.53;4974859;27;45443;-67
2022/10/16 11:39:17;;;;;;;;;2.67;1.00;;;;;20.55;61.12;100985.66;4980855;27;45470;-67
2022/10/16 11:41:56;;;;;;;;;1.00;1.00;;;;;20.83;60.21;100974.03;4981968;27;45442;-67